createdAt,value
2022-09-28T00:01:08.138Z,99619.25
2022-09-28T00:03:35.639Z,99609.44
2022-09-28T00:06:07.481Z,99618.44
2022-09-28T00:08:35.373Z,99617.13
2022-09-28T00:11:03.840Z,99612.50
2022-09-28T00:13:31.719Z,99608.97
2022-09-28T00:16:01.496Z,99611.69
2022-09-28T00:18:28.428Z,99605.75
2022-09-28T00:21:15.148Z,99603.03
2022-09-28T00:24:00.670Z,99614.41
2022-09-28T00:26:28.669Z,99605.75
2022-09-28T00:28:58.714Z,99594.88
2022-09-28T00:31:28.095Z,99596.78
2022-09-28T00:33:56.819Z,99598.41
2022-09-28T00:36:24.663Z,99590.06
2022-09-28T00:38:52.275Z,99602.22
2022-09-28T00:41:18.779Z,99615.03
2022-09-28T00:43:45.339Z,99612.63
2022-09-28T00:46:35.552Z,99616.94
2022-09-28T00:49:09.188Z,99611.50
2022-09-28T00:51:37.182Z,99620.78
2022-09-28T00:54:09.492Z,99628.94
2022-09-28T00:56:40.545Z,99629.25
2022-09-28T00:59:08.795Z,99624.59
2022-09-28T01:01:36.051Z,99616.44
2022-09-28T01:04:04.123Z,99610.53
2022-09-28T01:06:33.787Z,99616.75
2022-09-28T01:09:04.296Z,99608.59
2022-09-28T01:11:31.982Z,99605.88
2022-09-28T01:13:59.568Z,99608.94
2022-09-28T01:16:32.310Z,99599.13
2022-09-28T01:19:12.721Z,99626.34
2022-09-28T01:24:35.722Z,99627.44
2022-09-28T01:27:11.554Z,99621.72
2022-09-28T01:33:01.451Z,99617.38
2022-09-28T01:35:41.104Z,99620.41
2022-09-28T01:38:14.684Z,99619.28
2022-09-28T01:40:42.011Z,99619.91
2022-09-28T01:43:16.917Z,99617.97
2022-09-28T01:45:55.298Z,99609.03
2022-09-28T01:50:58.009Z,99597.06
2022-09-28T01:53:39.091Z,99607.09
2022-09-28T01:56:12.331Z,99601.66
2022-09-28T01:58:51.461Z,99602.78
2022-09-28T02:01:26.821Z,99603.13
2022-09-28T02:04:07.152Z,99596.22
2022-09-28T02:06:42.029Z,99592.72
2022-09-28T02:09:13.833Z,99590.00
2022-09-28T02:11:45.313Z,99591.13
2022-09-28T02:14:17.136Z,99593.03
2022-09-28T02:16:46.510Z,99597.34
2022-09-28T02:19:15.864Z,99592.22
2022-09-28T02:21:49.523Z,99593.31
2022-09-28T02:24:22.892Z,99603.72
2022-09-28T02:26:51.864Z,99601.19
2022-09-28T02:29:18.611Z,99604.19
2022-09-28T02:31:45.297Z,99597.16
2022-09-28T02:36:51.816Z,99609.97
2022-09-28T02:39:19.113Z,99595.25
2022-09-28T02:41:55.146Z,99590.13
2022-09-28T02:44:30.785Z,99599.88
2022-09-28T02:47:39.075Z,99598.28
2022-09-28T02:50:43.973Z,99593.97
2022-09-28T02:53:40.383Z,99596.69
2022-09-28T02:56:15.951Z,99600.22
2022-09-28T02:58:57.655Z,99596.69
2022-09-28T03:01:50.441Z,99597.47
2022-09-28T03:04:35.047Z,99601.31
2022-09-28T03:07:09.497Z,99603.72
2022-09-28T03:10:14.500Z,99593.16
2022-09-28T03:12:43.397Z,99605.94
2022-09-28T03:15:19.105Z,99604.34
2022-09-28T03:17:45.990Z,99607.38
2022-09-28T03:20:12.846Z,99601.94
2022-09-28T03:22:39.645Z,99599.22
2022-09-28T03:25:07.898Z,99587.53
2022-09-28T03:27:34.773Z,99582.09
2022-09-28T03:30:01.553Z,99590.56
2022-09-28T03:32:28.069Z,99594.88
2022-09-28T03:34:54.514Z,99586.72
2022-09-28T03:37:20.993Z,99598.72
2022-09-28T03:39:47.484Z,99602.53
2022-09-28T03:42:13.922Z,99601.44
2022-09-28T03:44:40.469Z,99600.31
2022-09-28T03:47:08.691Z,99597.59
2022-09-28T03:49:35.339Z,99592.97
2022-09-28T03:52:02.533Z,99588.03
2022-09-28T03:54:29.218Z,99585.00
2022-09-28T03:56:55.865Z,99583.56
2022-09-28T03:59:22.341Z,99593.31
2022-09-28T04:01:50.280Z,99605.50
2022-09-28T04:04:16.937Z,99593.22
2022-09-28T04:06:43.769Z,99596.41
2022-09-28T04:09:10.998Z,99601.84
2022-09-28T04:11:53.133Z,99608.13
2022-09-28T04:14:24.721Z,99617.56
2022-09-28T04:16:54.459Z,99621.88
2022-09-28T04:19:25.323Z,99622.38
2022-09-28T04:21:51.928Z,99609.59
2022-09-28T04:24:18.758Z,99607.66
2022-09-28T04:26:45.426Z,99634.88
2022-09-28T04:29:19.253Z,99630.22
2022-09-28T04:31:49.845Z,99630.22
2022-09-28T04:34:21.701Z,99640.81
2022-09-28T04:36:48.994Z,99629.13
2022-09-28T04:39:17.003Z,99640.00
2022-09-28T04:41:43.766Z,99636.16
2022-09-28T04:44:10.329Z,99640.81
2022-09-28T04:46:36.826Z,99625.28
2022-09-28T04:49:03.570Z,99623.38
2022-09-28T04:51:33.428Z,99615.22
2022-09-28T04:53:59.952Z,99620.66
2022-09-28T04:56:26.498Z,99627.69
2022-09-28T04:58:53.103Z,99626.09
2022-09-28T05:01:23.618Z,99626.88
2022-09-28T05:03:51.153Z,99616.81
2022-09-28T05:06:17.970Z,99612.50
2022-09-28T05:08:46.886Z,99613.00
2022-09-28T05:11:14.643Z,99611.09
2022-09-28T05:13:43.776Z,99617.31
2022-09-28T05:16:11.037Z,99611.09
2022-09-28T05:18:38.000Z,99611.09
2022-09-28T05:21:09.313Z,99614.59
2022-09-28T05:23:35.788Z,99624.34
2022-09-28T05:26:03.032Z,99630.13
2022-09-28T05:28:32.054Z,99632.53
2022-09-28T05:31:03.260Z,99621.97
2022-09-28T05:33:31.265Z,99631.41
2022-09-28T05:36:01.285Z,99629.78
2022-09-28T05:38:28.454Z,99630.59
2022-09-28T05:40:54.984Z,99617.31
2022-09-28T05:43:21.841Z,99622.44
2022-09-28T05:45:52.821Z,99618.13
2022-09-28T05:48:21.850Z,99619.72
2022-09-28T05:50:52.536Z,99617.81
2022-09-28T05:53:20.141Z,99615.06
2022-09-28T05:55:46.717Z,99619.44
2022-09-28T05:58:13.231Z,99641.19
2022-09-28T06:00:40.361Z,99643.41
2022-09-28T06:03:11.003Z,99633.31
2022-09-28T06:05:39.360Z,99628.69
2022-09-28T06:08:08.359Z,99633.03
2022-09-28T06:10:35.000Z,99637.34
2022-09-28T06:13:02.139Z,99632.69
2022-09-28T06:15:30.702Z,99630.78
2022-09-28T06:18:02.174Z,99625.34
2022-09-28T06:20:31.161Z,99631.59
2022-09-28T06:22:57.649Z,99630.78
2022-09-28T06:25:27.586Z,99640.88
2022-09-28T06:27:58.976Z,99640.88
2022-09-28T06:30:27.391Z,99656.06
2022-09-28T06:32:55.970Z,99663.75
2022-09-28T06:35:25.365Z,99646.31
2022-09-28T06:37:52.838Z,99659.09
2022-09-28T06:40:20.697Z,99664.53
2022-09-28T06:43:03.472Z,99652.88
2022-09-28T06:45:30.812Z,99666.47
2022-09-28T06:47:59.781Z,99663.75
2022-09-28T06:50:28.112Z,99659.91
2022-09-28T06:52:55.388Z,99660.69
2022-09-28T06:55:22.243Z,99654.19
2022-09-28T06:57:58.078Z,99654.19
2022-09-28T07:00:25.070Z,99656.56
2022-09-28T07:02:51.520Z,99659.28
2022-09-28T07:05:19.256Z,99658.19
2022-09-28T07:07:46.194Z,99655.47
2022-09-28T07:10:12.878Z,99650.03
2022-09-28T07:12:40.556Z,99654.38
2022-09-28T07:15:07.620Z,99657.09
2022-09-28T07:17:41.548Z,99661.72
2022-09-28T07:20:19.589Z,99670.69
2022-09-28T07:22:48.335Z,99668.28
2022-09-28T07:25:14.786Z,99671.81
2022-09-28T07:27:41.261Z,99678.03
2022-09-28T07:30:08.224Z,99680.75
2022-09-28T07:32:37.315Z,99680.75
2022-09-28T07:35:10.748Z,99684.00
2022-09-28T07:37:37.536Z,99689.44
2022-09-28T07:40:24.386Z,99693.75
2022-09-28T07:42:51.023Z,99693.75
2022-09-28T07:45:17.890Z,99692.97
2022-09-28T07:47:45.823Z,99689.44
2022-09-28T07:50:12.820Z,99689.91
2022-09-28T07:52:39.310Z,99696.97
2022-09-28T07:55:07.360Z,99699.19
2022-09-28T07:57:34.868Z,99693.75
2022-09-28T08:00:02.326Z,99710.88
2022-09-28T08:02:28.891Z,99701.91
2022-09-28T08:04:56.341Z,99697.59
2022-09-28T08:07:24.240Z,99701.91
2022-09-28T08:09:51.323Z,99708.97
2022-09-28T08:12:19.626Z,99717.94
2022-09-28T08:14:47.176Z,99711.69
2022-09-28T08:17:13.888Z,99717.13
2022-09-28T08:19:59.110Z,99716.03
2022-09-28T08:22:25.683Z,99723.06
2022-09-28T08:24:52.145Z,99726.59
2022-09-28T08:27:18.598Z,99739.38
2022-09-28T08:29:45.190Z,99728.50
2022-09-28T08:32:11.716Z,99737.47
2022-09-28T08:34:40.413Z,99739.91
2022-09-28T08:37:12.532Z,99739.06
2022-09-28T08:39:39.243Z,99743.72
2022-09-28T08:42:16.858Z,99748.06
2022-09-28T08:44:50.098Z,99746.16
2022-09-28T08:47:39.037Z,99749.34
2022-09-28T08:50:13.838Z,99752.38
2022-09-28T08:52:40.605Z,99750.16
2022-09-28T08:55:19.107Z,99753.19
2022-09-28T08:57:56.090Z,99748.53
2022-09-28T09:00:38.808Z,99752.06
2022-09-28T09:03:15.095Z,99747.41
2022-09-28T09:06:07.734Z,99750.94
2022-09-28T09:08:40.223Z,99751.78
2022-09-28T09:11:27.496Z,99761.03
2022-09-28T09:14:27.708Z,99765.66
2022-09-28T09:17:03.087Z,99766.47
2022-09-28T09:19:35.585Z,99766.47
2022-09-28T09:22:16.752Z,99751.78
2022-09-28T09:24:48.423Z,99760.22
2022-09-28T09:27:32.786Z,99761.81
2022-09-28T09:30:19.370Z,99760.75
2022-09-28T09:33:10.387Z,99763.13
2022-09-28T09:36:22.384Z,99764.75
2022-09-28T09:39:07.303Z,99766.66
2022-09-28T09:42:06.082Z,99764.75
2022-09-28T09:44:52.473Z,99772.09
2022-09-28T09:47:37.963Z,99770.69
2022-09-28T09:50:42.672Z,99764.44
2022-09-28T09:53:25.332Z,99767.66
2022-09-28T09:55:57.340Z,99765.44
2022-09-28T09:58:34.064Z,99764.03
2022-09-28T10:01:12.540Z,99765.63
2022-09-28T10:03:46.164Z,99756.34
2022-09-28T10:06:19.466Z,99756.84
2022-09-28T10:08:55.948Z,99763.75
2022-09-28T10:11:31.425Z,99754.50
2022-09-28T10:13:58.467Z,99755.31
2022-09-28T10:16:25.165Z,99760.44
2022-09-28T10:18:51.697Z,99758.22
2022-09-28T10:21:21.524Z,99753.25
2022-09-28T10:23:55.031Z,99740.44
2022-09-28T10:26:32.390Z,99747.19
2022-09-28T10:29:13.127Z,99743.34
2022-09-28T10:31:48.906Z,99748.78
2022-09-28T10:34:19.057Z,99751.22
2022-09-28T10:36:56.135Z,99744.97
2022-09-28T10:39:44.676Z,99746.56
2022-09-28T10:42:21.019Z,99755.53
2022-09-28T10:44:58.906Z,99745.47
2022-09-28T10:47:30.619Z,99749.78
2022-09-28T10:49:58.239Z,99749.78
2022-09-28T10:52:29.970Z,99749.78
2022-09-28T10:54:56.752Z,99756.84
2022-09-28T10:57:35.524Z,99754.13
2022-09-28T11:00:03.381Z,99761.97
2022-09-28T11:02:38.745Z,99757.66
2022-09-28T11:05:07.825Z,99762.31
2022-09-28T11:07:45.488Z,99758.78
2022-09-28T11:10:39.333Z,99758.78
2022-09-28T11:13:09.503Z,99766.94
2022-09-28T11:15:42.657Z,99763.38
2022-09-28T11:18:18.701Z,99766.13
2022-09-28T11:20:45.622Z,99766.13
2022-09-28T11:23:23.994Z,99762.31
2022-09-28T11:26:09.359Z,99760.84
2022-09-28T11:28:38.114Z,99772.53
2022-09-28T11:31:07.985Z,99765.50
2022-09-28T11:33:45.006Z,99763.28
2022-09-28T11:36:22.563Z,99759.44
2022-09-28T11:39:09.089Z,99769.19
2022-09-28T11:41:52.884Z,99770.00
2022-09-28T11:44:37.464Z,99776.28
2022-09-28T11:47:10.014Z,99769.72
2022-09-28T11:49:43.849Z,99775.16
2022-09-28T11:52:22.481Z,99770.50
2022-09-28T11:54:55.533Z,99770.50
2022-09-28T11:57:26.820Z,99765.88
2022-09-28T12:00:01.918Z,99787.66
2022-09-28T12:02:37.267Z,99781.41
2022-09-28T12:05:20.490Z,99791.16
2022-09-28T12:07:56.533Z,99793.91
2022-09-28T12:10:37.019Z,99803.19
2022-09-28T12:13:11.547Z,99798.53
2022-09-28T12:16:23.024Z,99798.88
2022-09-28T12:21:55.061Z,99799.97
2022-09-28T12:24:44.140Z,99799.97
2022-09-28T12:27:10.526Z,99808.44
2022-09-28T12:29:42.169Z,99801.06
2022-09-28T12:32:31.859Z,99796.75
2022-09-28T12:34:58.689Z,99788.59
2022-09-28T12:37:45.825Z,99796.75
2022-09-28T12:40:37.641Z,99797.88
2022-09-28T12:43:22.310Z,99800.59
2022-09-28T12:46:18.255Z,99805.22
2022-09-28T12:52:32.191Z,99813.88
2022-09-28T12:55:23.141Z,99813.88
2022-09-28T12:58:06.463Z,99816.09
2022-09-28T13:00:54.711Z,99806.84
2022-09-28T13:03:41.221Z,99816.94
2022-09-28T13:06:25.901Z,99815.00
2022-09-28T13:09:01.596Z,99817.75
2022-09-28T13:11:31.989Z,99819.66
2022-09-28T13:14:32.759Z,99819.66
2022-09-28T13:17:41.803Z,99817.41
2022-09-28T13:20:32.702Z,99811.50
2022-09-28T13:23:11.602Z,99813.09
2022-09-28T13:25:44.532Z,99819.34
2022-09-28T13:28:15.533Z,99812.28
2022-09-28T13:30:45.134Z,99810.03
2022-09-28T13:33:20.391Z,99813.56
2022-09-28T13:35:47.101Z,99808.97
2022-09-28T13:38:16.348Z,99812.16
2022-09-28T13:41:06.057Z,99819.84
2022-09-28T13:44:13.398Z,99828.50
2022-09-28T13:47:06.922Z,99826.91
2022-09-28T13:50:03.015Z,99827.19
2022-09-28T13:53:28.178Z,99839.72
2022-09-28T13:56:08.622Z,99826.38
2022-09-28T13:58:48.725Z,99831.03
2022-09-28T14:01:21.730Z,99834.56
2022-09-28T14:04:12.721Z,99819.34
2022-09-28T14:06:47.489Z,99825.91
2022-09-28T14:09:16.069Z,99829.44
2022-09-28T14:11:56.712Z,99827.81
2022-09-28T14:14:31.206Z,99823.97
2022-09-28T14:17:27.130Z,99824.28
2022-09-28T14:20:00.202Z,99834.38
2022-09-28T14:22:53.232Z,99831.34
2022-09-28T14:25:30.364Z,99837.88
2022-09-28T14:28:34.484Z,99834.06
2022-09-28T14:31:08.708Z,99828.13
2022-09-28T14:33:35.593Z,99839.81
2022-09-28T14:36:44.547Z,99821.06
2022-09-28T14:39:39.761Z,99822.66
2022-09-28T14:42:13.405Z,99826.19
2022-09-28T14:45:07.473Z,99819.94
2022-09-28T14:48:12.344Z,99825.41
2022-09-28T14:50:39.335Z,99821.88
2022-09-28T14:53:20.823Z,99817.53
2022-09-28T14:55:50.322Z,99821.06
2022-09-28T14:58:26.771Z,99821.88
2022-09-28T15:01:11.833Z,99820.28
2022-09-28T15:03:41.838Z,99829.56
2022-09-28T15:06:16.150Z,99822.19
2022-09-28T15:08:42.864Z,99835.00
2022-09-28T15:11:18.123Z,99833.38
2022-09-28T15:13:44.662Z,99836.91
2022-09-28T15:16:14.214Z,99838.81
2022-09-28T15:18:50.395Z,99840.75
2022-09-28T15:21:17.545Z,99839.63
2022-09-28T15:23:45.465Z,99846.19
2022-09-28T15:26:28.915Z,99840.75
2022-09-28T15:31:36.429Z,99846.19
2022-09-28T15:34:21.972Z,99842.34
2022-09-28T15:36:49.947Z,99849.72
2022-09-28T15:39:22.649Z,99837.22
2022-09-28T15:41:50.877Z,99842.97
2022-09-28T15:44:25.273Z,99838.34
2022-09-28T15:47:05.410Z,99844.59
2022-09-28T15:49:46.381Z,99840.25
2022-09-28T15:52:54.090Z,99839.94
2022-09-28T15:55:37.410Z,99844.59
2022-09-28T15:58:17.404Z,99836.09
2022-09-28T16:00:56.827Z,99835.28
2022-09-28T16:03:29.304Z,99833.69
2022-09-28T16:05:58.466Z,99835.63
2022-09-28T16:08:32.953Z,99840.75
2022-09-28T16:11:12.245Z,99829.06
2022-09-28T16:13:55.150Z,99825.53
2022-09-28T16:16:29.865Z,99824.72
2022-09-28T16:19:00.487Z,99823.94
2022-09-28T16:21:47.767Z,99826.66
2022-09-28T16:24:25.703Z,99829.06
2022-09-28T16:27:04.000Z,99829.38
2022-09-28T16:29:40.815Z,99829.38
2022-09-28T16:32:25.639Z,99833.19
2022-09-28T16:35:13.591Z,99833.50
2022-09-28T16:37:43.335Z,99828.53
2022-09-28T16:40:10.711Z,99842.97
2022-09-28T16:42:38.980Z,99838.63
2022-09-28T16:45:08.026Z,99827.75
2022-09-28T16:47:35.005Z,99834.31
2022-09-28T16:50:06.314Z,99839.75
2022-09-28T16:52:54.810Z,99836.22
2022-09-28T16:55:39.407Z,99845.19
2022-09-28T16:58:07.011Z,99843.59
2022-09-28T17:00:33.586Z,99849.84
2022-09-28T17:03:00.232Z,99849.03
2022-09-28T17:05:26.766Z,99849.03
2022-09-28T17:08:04.063Z,99850.13
2022-09-28T17:11:02.144Z,99849.31
2022-09-28T17:13:31.462Z,99852.38
2022-09-28T17:15:58.935Z,99848.53
2022-09-28T17:18:25.772Z,99849.66
2022-09-28T17:20:55.058Z,99849.66
2022-09-28T17:23:21.908Z,99854.28
2022-09-28T17:25:48.977Z,99846.94
2022-09-28T17:28:31.719Z,99846.13
2022-09-28T17:30:58.317Z,99845.31
2022-09-28T17:33:25.237Z,99852.69
2022-09-28T17:35:54.347Z,99860.53
2022-09-28T17:38:20.833Z,99860.84
2022-09-28T17:40:48.174Z,99862.75
2022-09-28T17:43:14.940Z,99870.09
2022-09-28T17:45:41.788Z,99870.09
2022-09-28T17:48:15.823Z,99868.19
2022-09-28T17:50:46.442Z,99869.31
2022-09-28T17:53:13.652Z,99871.22
2022-09-28T17:55:40.634Z,99874.75
2022-09-28T17:58:17.830Z,99868.00
2022-09-28T18:00:46.226Z,99865.28
2022-09-28T18:03:23.482Z,99869.63
2022-09-28T18:05:58.240Z,99868.81
2022-09-28T18:08:24.762Z,99868.00
2022-09-28T18:10:51.266Z,99870.72
2022-09-28T18:13:22.686Z,99869.91
2022-09-28T18:15:53.338Z,99873.75
2022-09-28T18:18:20.432Z,99864.00
2022-09-28T18:20:46.954Z,99873.75
2022-09-28T18:23:13.822Z,99871.03
2022-09-28T18:25:44.722Z,99887.38
2022-09-28T18:28:12.673Z,99881.41
2022-09-28T18:33:21.071Z,99879.53
2022-09-28T18:35:54.619Z,99890.41
2022-09-28T18:38:21.622Z,99897.25
2022-09-28T18:40:48.380Z,99891.00
2022-09-28T18:43:16.370Z,99883.66
2022-09-28T18:45:42.936Z,99890.69
2022-09-28T18:48:09.548Z,99888.28
2022-09-28T18:50:36.115Z,99889.09
2022-09-28T18:53:11.938Z,99885.06
2022-09-28T18:55:42.460Z,99888.56
2022-09-28T18:58:09.743Z,99888.56
2022-09-28T19:03:23.087Z,99889.69
2022-09-28T19:05:49.803Z,99883.44
2022-09-28T19:08:16.491Z,99887.56
2022-09-28T19:10:44.546Z,99896.25
2022-09-28T19:13:10.998Z,99890.00
2022-09-28T19:15:37.572Z,99889.22
2022-09-28T19:18:04.699Z,99891.94
2022-09-28T19:20:33.123Z,99894.94
2022-09-28T19:22:59.735Z,99893.03
2022-09-28T19:25:34.070Z,99898.47
2022-09-28T19:28:00.805Z,99896.06
2022-09-28T19:30:27.483Z,99904.22
2022-09-28T19:35:34.440Z,99895.25
2022-09-28T19:38:00.932Z,99897.97
2022-09-28T19:40:27.543Z,99903.41
2022-09-28T19:42:54.160Z,99909.16
2022-09-28T19:45:20.706Z,99902.09
2022-09-28T19:47:49.050Z,99901.31
2022-09-28T19:50:15.749Z,99907.88
2022-09-28T19:52:42.316Z,99907.88
2022-09-28T19:55:08.960Z,99908.16
2022-09-28T20:00:21.157Z,99910.59
2022-09-28T20:02:47.692Z,99902.72
2022-09-28T20:05:14.753Z,99913.59
2022-09-28T20:07:41.230Z,99918.22
2022-09-28T20:10:08.006Z,99909.59
2022-09-28T20:12:34.614Z,99910.06
2022-09-28T20:15:01.150Z,99913.91
2022-09-28T20:17:27.724Z,99916.31
2022-09-28T20:19:54.231Z,99926.91
2022-09-28T20:22:21.346Z,99928.84
2022-09-28T20:24:47.908Z,99917.94
2022-09-28T20:27:14.586Z,99923.38
2022-09-28T20:29:42.977Z,99918.22
2022-09-28T20:32:09.461Z,99923.38
2022-09-28T20:34:35.934Z,99925.28
2022-09-28T20:37:02.485Z,99919.84
2022-09-28T20:39:29.261Z,99914.41
2022-09-28T20:41:57.630Z,99910.88
2022-09-28T20:44:24.196Z,99912.00
2022-09-28T20:46:51.415Z,99917.44
2022-09-28T20:49:17.914Z,99912.00
2022-09-28T20:51:44.777Z,99912.00
2022-09-28T20:54:11.757Z,99912.31
2022-09-28T20:56:38.905Z,99917.75
2022-09-28T20:59:11.284Z,99911.19
2022-09-28T21:01:38.515Z,99911.19
2022-09-28T21:04:07.284Z,99908.75
2022-09-28T21:06:36.797Z,99915.81
2022-09-28T21:09:04.787Z,99912.31
2022-09-28T21:11:32.091Z,99922.34
2022-09-28T21:14:01.855Z,99912.59
2022-09-28T21:16:30.577Z,99907.16
2022-09-28T21:18:57.521Z,99911.47
2022-09-28T21:21:25.383Z,99906.66
2022-09-28T21:23:53.087Z,99911.78
2022-09-28T21:26:27.169Z,99904.22
2022-09-28T21:28:58.220Z,99912.91
2022-09-28T21:31:29.157Z,99917.56
2022-09-28T21:33:56.825Z,99917.56
2022-09-28T21:36:23.410Z,99919.47
2022-09-28T21:38:50.215Z,99915.13
2022-09-28T21:41:17.222Z,99919.47
2022-09-28T21:43:43.781Z,99917.03
2022-09-28T21:46:10.851Z,99920.56
2022-09-28T21:48:37.349Z,99927.13
2022-09-28T21:51:06.579Z,99924.72
2022-09-28T21:53:35.681Z,99924.41
2022-09-28T21:56:04.623Z,99923.88
2022-09-28T21:58:33.536Z,99923.88
2022-09-28T22:01:13.190Z,99922.28
2022-09-28T22:03:40.273Z,99925.00
2022-09-28T22:06:07.509Z,99926.59
2022-09-28T22:08:35.258Z,99923.38
2022-09-28T22:11:05.626Z,99930.44
2022-09-28T22:13:35.017Z,99932.34
2022-09-28T22:16:02.082Z,99929.94
2022-09-28T22:18:30.253Z,99927.22
2022-09-28T22:21:02.836Z,99928.84
2022-09-28T22:23:30.231Z,99931.84
2022-09-28T22:26:07.735Z,99933.75
2022-09-28T22:28:34.887Z,99937.59
2022-09-28T22:31:01.684Z,99939.47
2022-09-28T22:33:28.416Z,99938.97
2022-09-28T22:35:55.484Z,99938.69
2022-09-28T22:38:24.153Z,99943.59
2022-09-28T22:40:52.643Z,99930.00
2022-09-28T22:43:19.200Z,99934.63
2022-09-28T22:45:45.939Z,99926.19
2022-09-28T22:48:13.178Z,99924.56
2022-09-28T22:50:47.158Z,99934.63
2022-09-28T22:53:14.103Z,99945.53
2022-09-28T22:55:41.729Z,99942.81
2022-09-28T22:58:08.189Z,99943.13
2022-09-28T23:00:34.650Z,99938.75
2022-09-28T23:03:01.227Z,99944.19
2022-09-28T23:05:27.766Z,99937.97
2022-09-28T23:07:54.215Z,99948.56
2022-09-28T23:10:20.723Z,99954.28
2022-09-28T23:12:47.156Z,99948.84
2022-09-28T23:15:13.750Z,99943.72
2022-09-28T23:21:28.317Z,99955.41
2022-09-28T23:24:01.567Z,99960.31
2022-09-28T23:26:31.639Z,99963.03
2022-09-28T23:28:59.566Z,99956.31
2022-09-28T23:31:31.602Z,99959.81
2022-09-28T23:34:02.284Z,99957.09
2022-09-28T23:36:29.713Z,99948.94
2022-09-28T23:38:56.472Z,99956.31
2022-09-28T23:41:22.940Z,99951.16
2022-09-28T23:43:49.457Z,99957.09
2022-09-28T23:46:20.466Z,99954.69
2022-09-28T23:48:47.652Z,99949.25
2022-09-28T23:51:14.211Z,99945.72
2022-09-28T23:53:40.766Z,99954.69
